createdAt,value
2019-05-25T00:01:33.170Z,25.20
2019-05-25T00:04:09.048Z,25.20
2019-05-25T00:06:44.441Z,25.30
2019-05-25T00:09:21.522Z,25.40
2019-05-25T00:11:57.070Z,25.30
2019-05-25T00:14:35.642Z,25.40
2019-05-25T00:17:11.165Z,25.40
2019-05-25T00:19:47.101Z,25.50
2019-05-25T00:22:23.445Z,25.60
2019-05-25T00:25:01.005Z,25.60
2019-05-25T00:27:37.007Z,25.70
2019-05-25T00:30:13.532Z,25.70
2019-05-25T00:32:50.625Z,25.80
2019-05-25T00:35:26.690Z,25.70
2019-05-25T00:38:02.382Z,25.60
2019-05-25T00:40:39.554Z,25.60
2019-05-25T00:43:17.411Z,25.60
2019-05-25T00:45:53.493Z,25.60
2019-05-25T00:48:30.596Z,25.70
2019-05-25T00:51:06.508Z,25.70
2019-05-25T00:53:42.164Z,25.70
2019-05-25T00:56:19.633Z,25.70
2019-05-25T00:58:56.692Z,25.70
2019-05-25T01:01:30.874Z,25.70
2019-05-25T01:04:06.942Z,25.70
2019-05-25T01:06:42.552Z,25.60
2019-05-25T01:09:20.159Z,25.70
2019-05-25T01:12:01.190Z,25.70
2019-05-25T01:14:36.793Z,25.70
2019-05-25T01:17:13.722Z,25.70
2019-05-25T01:19:54.289Z,25.70
2019-05-25T01:22:35.264Z,25.50
2019-05-25T01:25:20.287Z,25.60
2019-05-25T01:27:58.095Z,25.60
2019-05-25T01:30:34.246Z,25.50
2019-05-25T01:33:11.897Z,25.50
2019-05-25T01:35:51.107Z,25.40
2019-05-25T01:38:29.685Z,25.40
2019-05-25T01:41:06.496Z,25.40
2019-05-25T01:43:41.816Z,25.40
2019-05-25T01:46:18.088Z,25.40
2019-05-25T01:48:54.149Z,25.40
2019-05-25T01:51:33.515Z,25.40
2019-05-25T01:54:11.033Z,25.50
2019-05-25T01:56:50.721Z,25.60
2019-05-25T01:59:27.780Z,25.60
2019-05-25T02:02:09.921Z,25.50
2019-05-25T02:04:55.113Z,25.70
2019-05-25T02:07:32.705Z,25.70
2019-05-25T02:10:14.385Z,25.80
2019-05-25T02:12:51.463Z,25.70
2019-05-25T02:15:29.297Z,25.60
2019-05-25T02:18:08.878Z,25.60
2019-05-25T02:20:44.809Z,25.60
2019-05-25T02:23:21.985Z,25.40
2019-05-25T02:25:57.185Z,25.40
2019-05-25T02:28:33.657Z,25.30
2019-05-25T02:31:11.003Z,25.40
2019-05-25T02:33:47.462Z,25.40
2019-05-25T02:36:26.823Z,25.40
2019-05-25T02:39:03.947Z,25.40
2019-05-25T02:41:41.493Z,25.40
2019-05-25T02:44:18.288Z,25.30
2019-05-25T02:46:57.716Z,25.20
2019-05-25T02:49:34.641Z,25.00
2019-05-25T02:52:12.246Z,25.00
2019-05-25T02:54:47.915Z,24.80
2019-05-25T02:57:25.789Z,24.80
2019-05-25T03:00:01.504Z,24.90
2019-05-25T03:02:39.697Z,24.80
2019-05-25T03:05:17.652Z,24.80
2019-05-25T03:08:09.899Z,24.90
2019-05-25T03:10:53.794Z,25.00
2019-05-25T03:13:33.654Z,25.10
2019-05-25T03:16:11.294Z,25.10
2019-05-25T03:18:54.413Z,25.00
2019-05-25T03:21:29.967Z,25.10
2019-05-25T03:24:08.767Z,25.00
2019-05-25T03:26:44.167Z,25.10
2019-05-25T03:29:24.395Z,25.10
2019-05-25T03:32:02.013Z,25.10
2019-05-25T03:34:42.038Z,25.10
2019-05-25T03:37:24.665Z,24.80
2019-05-25T03:40:06.178Z,24.80
2019-05-25T03:42:42.174Z,24.80
2019-05-25T03:45:18.781Z,24.60
2019-05-25T03:47:55.653Z,24.60
2019-05-25T03:50:33.164Z,24.60
2019-05-25T03:53:10.188Z,24.70
2019-05-25T03:55:45.380Z,24.50
2019-05-25T03:58:21.064Z,24.50
2019-05-25T04:00:59.991Z,24.60
2019-05-25T04:03:39.897Z,24.60
2019-05-25T04:06:17.346Z,24.60
2019-05-25T04:08:51.658Z,24.40
2019-05-25T04:11:28.706Z,24.60
2019-05-25T04:14:09.321Z,24.60
2019-05-25T04:16:46.851Z,24.60
2019-05-25T04:19:26.018Z,24.60
2019-05-25T04:22:02.538Z,24.40
2019-05-25T04:24:41.574Z,24.60
2019-05-25T04:27:20.884Z,24.50
2019-05-25T04:30:01.414Z,24.60
2019-05-25T04:32:51.493Z,24.60
2019-05-25T04:35:27.697Z,24.70
2019-05-25T04:38:05.244Z,24.80
2019-05-25T04:40:43.010Z,24.80
2019-05-25T04:43:21.507Z,24.80
2019-05-25T04:45:59.804Z,24.80
2019-05-25T04:48:39.238Z,24.50
2019-05-25T04:54:11.754Z,24.70
2019-05-25T04:59:43.401Z,24.70
2019-05-25T05:02:20.014Z,24.80
2019-05-25T05:04:56.864Z,24.70
2019-05-25T05:07:34.760Z,24.70
2019-05-25T05:10:13.709Z,24.70
2019-05-25T05:12:50.858Z,24.70
2019-05-25T05:15:27.922Z,24.70
2019-05-25T05:18:04.875Z,24.70
2019-05-25T05:20:42.527Z,24.60
2019-05-25T05:23:19.566Z,24.70
2019-05-25T05:26:04.365Z,24.80
2019-05-25T05:28:49.571Z,24.70
2019-05-25T05:31:29.721Z,24.60
2019-05-25T05:34:08.503Z,24.70
2019-05-25T05:36:45.741Z,24.70
2019-05-25T05:39:23.272Z,24.80
2019-05-25T05:42:05.426Z,24.80
2019-05-25T05:44:45.477Z,24.80
2019-05-25T05:47:27.589Z,24.80
2019-05-25T05:50:09.606Z,24.70
2019-05-25T05:52:52.168Z,24.80
2019-05-25T05:55:35.437Z,24.90
2019-05-25T05:58:18.501Z,24.90
2019-05-25T06:00:57.206Z,24.80
2019-05-25T06:03:39.181Z,24.90
2019-05-25T06:06:14.640Z,24.90
2019-05-25T06:08:54.690Z,24.90
2019-05-25T06:11:34.311Z,25.00
2019-05-25T06:14:13.049Z,25.00
2019-05-25T06:16:51.072Z,25.00
2019-05-25T06:19:26.951Z,25.00
2019-05-25T06:22:11.923Z,25.00
2019-05-25T06:24:51.611Z,24.90
2019-05-25T06:27:31.090Z,25.00
2019-05-25T06:30:10.883Z,25.00
2019-05-25T06:35:50.553Z,24.90
2019-05-25T06:38:30.980Z,24.90
2019-05-25T06:41:10.970Z,24.90
2019-05-25T06:43:46.680Z,24.90
2019-05-25T06:46:23.187Z,24.90
2019-05-25T06:51:55.893Z,24.80
2019-05-25T06:54:30.774Z,24.90
2019-05-25T06:57:08.413Z,24.90
2019-05-25T06:59:45.103Z,24.90
2019-05-25T07:02:23.578Z,24.90
2019-05-25T07:05:01.743Z,25.00
2019-05-25T07:07:40.020Z,25.00
2019-05-25T07:10:27.954Z,24.80
2019-05-25T07:16:05.754Z,24.90
2019-05-25T07:18:46.582Z,24.80
2019-05-25T07:21:24.241Z,24.90
2019-05-25T07:24:04.075Z,24.90
2019-05-25T07:26:44.147Z,24.90
2019-05-25T07:29:22.088Z,24.90
2019-05-25T07:32:00.453Z,25.00
2019-05-25T07:34:40.388Z,25.00
2019-05-25T07:37:17.597Z,25.00
2019-05-25T07:39:54.922Z,24.90
2019-05-25T07:42:32.388Z,24.80
2019-05-25T07:45:13.373Z,24.90
2019-05-25T07:47:50.626Z,24.90
2019-05-25T07:50:30.934Z,25.00
2019-05-25T07:53:06.932Z,25.00
2019-05-25T07:55:44.752Z,25.00
2019-05-25T07:58:30.265Z,25.00
2019-05-25T08:01:25.277Z,24.90
2019-05-25T08:04:03.789Z,24.90
2019-05-25T08:06:44.137Z,24.90
2019-05-25T08:09:21.683Z,24.80
2019-05-25T08:11:58.786Z,24.80
2019-05-25T08:14:36.874Z,24.80
2019-05-25T08:17:21.130Z,24.80
2019-05-25T08:19:59.774Z,24.80
2019-05-25T08:22:39.078Z,24.80
2019-05-25T08:25:14.536Z,24.80
2019-05-25T08:27:50.069Z,24.80
2019-05-25T08:30:34.756Z,24.80
2019-05-25T08:33:13.138Z,24.80
2019-05-25T08:35:48.911Z,24.70
2019-05-25T08:38:25.010Z,24.70
2019-05-25T08:41:03.489Z,24.70
2019-05-25T08:43:41.564Z,24.70
2019-05-25T08:46:21.467Z,24.60
2019-05-25T08:49:05.080Z,24.60
2019-05-25T08:51:47.701Z,24.60
2019-05-25T08:54:25.957Z,24.60
2019-05-25T08:57:05.745Z,24.60
2019-05-25T08:59:44.565Z,24.50
2019-05-25T09:02:21.548Z,24.40
2019-05-25T09:04:58.628Z,24.30
2019-05-25T09:07:36.082Z,24.30
2019-05-25T09:10:13.349Z,24.30
2019-05-25T09:12:51.505Z,24.30
2019-05-25T09:15:28.653Z,24.30
2019-05-25T09:18:06.329Z,24.30
2019-05-25T09:20:53.176Z,24.20
2019-05-25T09:23:29.427Z,24.20
2019-05-25T09:26:06.227Z,24.10
2019-05-25T09:28:46.265Z,24.10
2019-05-25T09:31:21.671Z,24.20
2019-05-25T09:34:01.359Z,24.20
2019-05-25T09:36:37.370Z,24.20
2019-05-25T09:39:17.897Z,24.10
2019-05-25T09:41:59.169Z,24.10
2019-05-25T09:44:34.843Z,24.00
2019-05-25T09:47:10.834Z,24.00
2019-05-25T09:49:52.832Z,24.00
2019-05-25T09:52:30.777Z,24.10
2019-05-25T09:55:09.184Z,23.70
2019-05-25T09:57:45.234Z,23.70
2019-05-25T10:00:21.813Z,23.70
2019-05-25T10:03:01.574Z,23.90
2019-05-25T10:05:37.207Z,23.90
2019-05-25T10:08:17.042Z,23.60
2019-05-25T10:10:52.752Z,23.30
2019-05-25T10:13:36.276Z,23.30
2019-05-25T10:16:12.717Z,23.40
2019-05-25T10:18:51.578Z,23.50
2019-05-25T10:21:28.837Z,23.50
2019-05-25T10:24:04.516Z,23.50
2019-05-25T10:26:40.201Z,23.50
2019-05-25T10:29:34.021Z,23.50
2019-05-25T10:31:57.324Z,23.10
2019-05-25T10:34:36.644Z,23.20
2019-05-25T10:37:13.121Z,23.20
2019-05-25T10:39:48.950Z,23.00
2019-05-25T10:42:25.862Z,23.00
2019-05-25T10:45:04.673Z,23.00
2019-05-25T10:47:41.915Z,23.00
2019-05-25T10:50:20.011Z,23.10
2019-05-25T10:52:58.973Z,23.00
2019-05-25T10:55:39.099Z,22.90
2019-05-25T10:58:22.643Z,23.00
2019-05-25T11:01:04.702Z,23.10
2019-05-25T11:03:43.041Z,23.10
2019-05-25T11:06:28.160Z,23.30
2019-05-25T11:09:12.541Z,23.30
2019-05-25T11:11:50.972Z,23.40
2019-05-25T11:14:29.514Z,23.50
2019-05-25T11:17:06.463Z,23.50
2019-05-25T11:19:42.594Z,23.40
2019-05-25T11:22:20.380Z,23.40
2019-05-25T11:24:57.175Z,23.40
2019-05-25T11:27:34.062Z,23.40
2019-05-25T11:30:12.948Z,23.50
2019-05-25T11:32:51.016Z,23.50
2019-05-25T11:35:28.733Z,23.30
2019-05-25T11:38:06.014Z,23.30
2019-05-25T11:40:45.256Z,23.40
2019-05-25T11:43:26.673Z,23.40
2019-05-25T11:46:05.503Z,23.40
2019-05-25T11:48:45.188Z,23.40
2019-05-25T11:51:20.918Z,23.40
2019-05-25T11:54:09.823Z,23.40
2019-05-25T11:56:49.171Z,23.50
2019-05-25T11:59:27.558Z,23.30
2019-05-25T12:02:05.073Z,23.40
2019-05-25T12:04:45.975Z,23.20
2019-05-25T12:07:23.280Z,23.00
2019-05-25T12:10:03.056Z,23.10
2019-05-25T12:12:40.476Z,23.20
2019-05-25T12:15:16.811Z,23.20
2019-05-25T12:17:52.602Z,23.30
2019-05-25T12:20:31.845Z,23.30
2019-05-25T12:23:09.766Z,23.30
2019-05-25T12:25:49.163Z,23.40
2019-05-25T12:28:27.544Z,23.30
2019-05-25T12:31:03.618Z,23.40
2019-05-25T12:33:40.174Z,23.40
2019-05-25T12:36:17.769Z,23.40
2019-05-25T12:38:59.049Z,23.40
2019-05-25T12:41:39.667Z,23.40
2019-05-25T12:44:17.183Z,23.40
2019-05-25T12:46:53.213Z,23.30
2019-05-25T12:49:49.066Z,23.40
2019-05-25T12:52:10.534Z,23.30
2019-05-25T12:54:47.426Z,23.30
2019-05-25T12:57:25.575Z,23.40
2019-05-25T13:00:14.931Z,23.30
2019-05-25T13:02:44.576Z,23.30
2019-05-25T13:05:33.730Z,23.30
2019-05-25T13:08:05.235Z,23.30
2019-05-25T13:10:42.012Z,23.40
2019-05-25T13:13:19.359Z,23.40
2019-05-25T13:18:52.789Z,23.30
2019-05-25T13:21:31.445Z,23.40
2019-05-25T13:24:11.465Z,23.30
2019-05-25T13:26:53.626Z,23.30
2019-05-25T13:29:33.164Z,23.30
2019-05-25T13:32:12.735Z,23.30
2019-05-25T13:34:52.309Z,23.20
2019-05-25T13:37:36.605Z,23.20
2019-05-25T13:40:25.066Z,23.20
2019-05-25T13:43:09.503Z,23.30
2019-05-25T13:45:50.542Z,23.30
2019-05-25T13:48:30.827Z,23.40
2019-05-25T13:54:06.611Z,23.40
2019-05-25T13:56:42.879Z,23.30
2019-05-25T14:02:27.642Z,23.30
2019-05-25T14:05:23.576Z,23.20
2019-05-25T14:08:01.726Z,23.30
2019-05-25T14:10:51.595Z,23.20
2019-05-25T14:13:30.952Z,23.20
2019-05-25T14:16:07.875Z,23.20
2019-05-25T14:18:56.795Z,23.30
2019-05-25T14:21:50.348Z,23.30
2019-05-25T14:24:33.484Z,23.40
2019-05-25T14:27:14.916Z,23.10
2019-05-25T14:30:01.457Z,23.10
2019-05-25T14:35:41.511Z,23.10
2019-05-25T14:38:20.568Z,23.20
2019-05-25T14:41:03.043Z,23.10
2019-05-25T14:43:38.880Z,23.30
2019-05-25T14:46:27.497Z,23.30
2019-05-25T14:48:58.446Z,23.20
2019-05-25T14:51:53.352Z,23.10
2019-05-25T14:54:36.060Z,23.20
2019-05-25T14:57:16.106Z,23.20
2019-05-25T15:02:48.356Z,23.20
2019-05-25T15:05:29.308Z,23.10
2019-05-25T15:08:10.240Z,23.20
2019-05-25T15:10:51.094Z,23.10
2019-05-25T15:13:30.494Z,23.10
2019-05-25T15:16:24.628Z,23.10
2019-05-25T15:19:04.847Z,23.10
2019-05-25T15:21:46.925Z,23.10
2019-05-25T15:24:26.217Z,23.10
2019-05-25T15:27:07.534Z,23.30
2019-05-25T15:29:51.525Z,23.10
2019-05-25T15:32:38.219Z,23.20
2019-05-25T15:35:19.972Z,23.20
2019-05-25T15:37:56.692Z,23.20
2019-05-25T15:40:42.932Z,23.10
2019-05-25T15:43:23.420Z,23.10
2019-05-25T15:46:02.354Z,23.00
2019-05-25T15:48:56.080Z,23.00
2019-05-25T15:51:40.771Z,23.10
2019-05-25T15:54:35.300Z,23.10
2019-05-25T15:57:26.180Z,23.10
2019-05-25T16:00:13.341Z,23.10
2019-05-25T16:02:53.462Z,23.00
2019-05-25T16:05:33.757Z,23.10
2019-05-25T16:08:15.895Z,23.10
2019-05-25T16:10:54.102Z,23.10
2019-05-25T16:13:31.008Z,23.10
2019-05-25T16:16:07.928Z,23.00
2019-05-25T16:19:02.363Z,23.00
2019-05-25T16:21:46.065Z,23.00
2019-05-25T16:24:30.576Z,23.10
2019-05-25T16:27:15.509Z,23.10
2019-05-25T16:29:53.782Z,23.10
2019-05-25T16:35:38.884Z,23.00
2019-05-25T16:38:22.390Z,22.90
2019-05-25T16:41:01.385Z,23.10
2019-05-25T16:43:55.000Z,23.10
2019-05-25T16:46:40.889Z,23.10
2019-05-25T16:49:17.978Z,23.10
2019-05-25T16:51:55.407Z,23.10
2019-05-25T16:54:32.041Z,23.20
2019-05-25T16:57:11.409Z,23.10
2019-05-25T16:59:47.943Z,23.10
2019-05-25T17:05:22.159Z,23.00
2019-05-25T17:08:12.318Z,23.00
2019-05-25T17:10:49.746Z,23.00
2019-05-25T17:13:27.594Z,23.00
2019-05-25T17:16:05.702Z,23.00
2019-05-25T17:18:43.975Z,23.00
2019-05-25T17:21:24.053Z,23.00
2019-05-25T17:24:04.205Z,23.00
2019-05-25T17:26:39.890Z,23.10
2019-05-25T17:29:19.865Z,23.00
2019-05-25T17:31:57.667Z,23.00
2019-05-25T17:34:41.093Z,23.10
2019-05-25T17:37:18.698Z,23.10
2019-05-25T17:40:00.418Z,23.00
2019-05-25T17:42:38.276Z,23.00
2019-05-25T17:45:20.440Z,23.00
2019-05-25T17:48:05.146Z,23.00
2019-05-25T17:50:41.191Z,23.00
2019-05-25T17:53:22.416Z,23.00
2019-05-25T17:55:58.538Z,23.00
2019-05-25T17:58:33.979Z,23.00
2019-05-25T18:01:16.551Z,23.00
2019-05-25T18:04:05.528Z,23.00
2019-05-25T18:06:27.714Z,23.00
2019-05-25T18:09:04.744Z,22.90
2019-05-25T18:11:42.606Z,22.80
2019-05-25T18:14:21.092Z,22.90
2019-05-25T18:16:56.937Z,22.80
2019-05-25T18:19:33.999Z,22.80
2019-05-25T18:22:12.041Z,22.80
2019-05-25T18:24:47.870Z,22.80
2019-05-25T18:27:23.991Z,22.90
2019-05-25T18:30:02.956Z,22.80
2019-05-25T18:32:43.618Z,22.80
2019-05-25T18:35:20.942Z,22.90
2019-05-25T18:38:01.874Z,22.90
2019-05-25T18:40:40.657Z,22.90
2019-05-25T18:43:16.324Z,22.80
2019-05-25T18:45:56.299Z,22.90
2019-05-25T18:48:34.577Z,22.80
2019-05-25T18:51:10.269Z,22.70
2019-05-25T18:53:46.403Z,22.70
2019-05-25T18:56:25.974Z,22.80
2019-05-25T18:59:01.815Z,22.80
2019-05-25T19:01:37.484Z,22.80
2019-05-25T19:04:13.341Z,22.80
2019-05-25T19:06:49.063Z,22.90
2019-05-25T19:09:25.014Z,22.90
2019-05-25T19:12:02.058Z,22.90
2019-05-25T19:14:42.814Z,22.80
2019-05-25T19:17:19.981Z,22.80
2019-05-25T19:19:57.445Z,22.80
2019-05-25T19:22:33.095Z,22.80
2019-05-25T19:25:14.599Z,22.80
2019-05-25T19:27:49.957Z,22.90
2019-05-25T19:30:25.704Z,22.80
2019-05-25T19:33:02.261Z,22.80
2019-05-25T19:35:38.345Z,22.80
2019-05-25T19:38:15.497Z,22.80
2019-05-25T19:40:51.277Z,22.80
2019-05-25T19:43:26.576Z,22.80
2019-05-25T19:46:02.554Z,22.90
2019-05-25T19:48:38.430Z,22.80
2019-05-25T19:51:16.247Z,22.80
2019-05-25T19:53:52.894Z,22.80
2019-05-25T19:56:30.259Z,22.80
2019-05-25T19:59:05.482Z,22.80
2019-05-25T20:01:42.581Z,22.70
2019-05-25T20:04:18.251Z,22.80
2019-05-25T20:06:53.743Z,22.80
2019-05-25T20:09:32.866Z,22.80
2019-05-25T20:12:10.140Z,22.60
2019-05-25T20:14:49.334Z,22.60
2019-05-25T20:17:25.410Z,22.50
2019-05-25T20:20:02.075Z,22.60
2019-05-25T20:22:37.859Z,22.50
2019-05-25T20:25:14.342Z,22.30
2019-05-25T20:27:50.128Z,22.40
2019-05-25T20:30:31.509Z,22.40
2019-05-25T20:33:12.062Z,22.30
2019-05-25T20:35:47.354Z,22.30
2019-05-25T20:38:24.557Z,22.40
2019-05-25T20:40:59.892Z,22.50
2019-05-25T20:43:35.938Z,22.30
2019-05-25T20:46:15.327Z,22.50
2019-05-25T20:48:52.977Z,22.40
2019-05-25T20:51:29.894Z,22.50
2019-05-25T20:54:05.101Z,22.40
2019-05-25T20:56:40.381Z,22.50
2019-05-25T20:59:17.664Z,22.50
2019-05-25T21:01:53.371Z,22.40
2019-05-25T21:04:32.007Z,22.40
2019-05-25T21:07:09.368Z,22.40
2019-05-25T21:09:46.025Z,22.20
2019-05-25T21:12:21.332Z,22.30
2019-05-25T21:14:58.590Z,22.40
2019-05-25T21:17:35.163Z,22.30
2019-05-25T21:20:12.386Z,22.30
2019-05-25T21:22:47.733Z,22.30
2019-05-25T21:25:23.827Z,22.20
2019-05-25T21:28:03.591Z,22.20
2019-05-25T21:30:39.442Z,22.20
2019-05-25T21:33:14.670Z,22.20
2019-05-25T21:36:06.401Z,22.10
2019-05-25T21:38:28.988Z,22.10
2019-05-25T21:41:04.645Z,22.20
2019-05-25T21:43:44.347Z,22.20
2019-05-25T21:46:21.943Z,22.20
2019-05-25T21:49:01.011Z,22.10
2019-05-25T21:51:38.934Z,22.10
2019-05-25T21:54:15.726Z,22.20
2019-05-25T21:56:50.088Z,22.30
2019-05-25T21:59:26.660Z,22.30
2019-05-25T22:02:03.827Z,22.30
2019-05-25T22:04:39.662Z,22.20
2019-05-25T22:07:16.703Z,22.30
2019-05-25T22:09:53.430Z,22.20
2019-05-25T22:12:28.960Z,22.30
2019-05-25T22:15:04.815Z,22.20
2019-05-25T22:17:40.743Z,22.20
2019-05-25T22:20:17.782Z,22.20
2019-05-25T22:22:55.707Z,22.20
2019-05-25T22:25:32.129Z,22.20
2019-05-25T22:28:07.994Z,22.30
2019-05-25T22:30:44.979Z,22.20
2019-05-25T22:33:20.697Z,22.30
2019-05-25T22:35:56.140Z,22.20
2019-05-25T22:38:33.997Z,22.20
2019-05-25T22:41:10.760Z,22.20
2019-05-25T22:43:47.880Z,22.10
2019-05-25T22:46:23.590Z,22.10
2019-05-25T22:49:01.113Z,22.10
2019-05-25T22:51:36.486Z,22.20
2019-05-25T22:54:14.280Z,22.30
2019-05-25T22:56:51.665Z,22.30
2019-05-25T22:59:27.393Z,22.30
2019-05-25T23:02:02.891Z,22.30
2019-05-25T23:04:39.038Z,22.20
2019-05-25T23:07:21.111Z,22.30
2019-05-25T23:09:59.922Z,22.40
2019-05-25T23:12:36.428Z,22.40
2019-05-25T23:15:14.412Z,22.40
2019-05-25T23:17:51.292Z,22.40
2019-05-25T23:20:27.240Z,22.30
2019-05-25T23:23:02.816Z,22.40
2019-05-25T23:25:39.375Z,22.50
2019-05-25T23:28:16.054Z,22.40
2019-05-25T23:30:52.451Z,22.40
2019-05-25T23:33:29.383Z,22.50
2019-05-25T23:36:07.321Z,22.50
2019-05-25T23:38:42.782Z,22.50
2019-05-25T23:41:18.791Z,22.50
2019-05-25T23:43:59.095Z,22.60
2019-05-25T23:46:35.218Z,22.50
2019-05-25T23:49:10.760Z,22.40
2019-05-25T23:51:51.072Z,22.40
2019-05-25T23:54:26.658Z,22.50
2019-05-25T23:57:04.220Z,22.40
2019-05-25T23:59:41.169Z,22.50
